sensor_id;sensor_type;location;lat;lon;timestamp;temperature;humidity
31783;DHT22;18351;47.560;9.708;2022-12-05T00:00:17;4.00;99.90
31783;DHT22;18351;47.560;9.708;2022-12-05T00:02:43;4.10;99.90
31783;DHT22;18351;47.560;9.708;2022-12-05T00:05:10;4.10;99.90
31783;DHT22;18351;47.560;9.708;2022-12-05T00:07:36;4.10;99.90
31783;DHT22;18351;47.560;9.708;2022-12-05T00:10:03;4.00;99.90
31783;DHT22;18351;47.560;9.708;2022-12-05T00:12:28;4.00;99.90
31783;DHT22;18351;47.560;9.708;2022-12-05T00:14:54;4.10;99.90
31783;DHT22;18351;47.560;9.708;2022-12-05T00:17:19;4.10;99.90
31783;DHT22;18351;47.560;9.708;2022-12-05T00:19:45;4.00;99.90
31783;DHT22;18351;47.560;9.708;2022-12-05T00:22:10;4.00;99.90
31783;DHT22;18351;47.560;9.708;2022-12-05T00:24:36;3.90;99.90
31783;DHT22;18351;47.560;9.708;2022-12-05T00:27:03;3.90;99.90
31783;DHT22;18351;47.560;9.708;2022-12-05T00:29:28;3.90;99.90
31783;DHT22;18351;47.560;9.708;2022-12-05T00:31:54;3.90;99.90
31783;DHT22;18351;47.560;9.708;2022-12-05T00:34:19;4.00;99.90
31783;DHT22;18351;47.560;9.708;2022-12-05T00:36:45;3.90;99.90
31783;DHT22;18351;47.560;9.708;2022-12-05T00:39:11;4.00;99.90
31783;DHT22;18351;47.560;9.708;2022-12-05T00:41:40;4.00;99.90
31783;DHT22;18351;47.560;9.708;2022-12-05T00:44:06;4.00;99.90
31783;DHT22;18351;47.560;9.708;2022-12-05T00:46:32;4.00;99.90
31783;DHT22;18351;47.560;9.708;2022-12-05T00:48:59;4.10;99.90
31783;DHT22;18351;47.560;9.708;2022-12-05T00:51:28;4.10;99.90
31783;DHT22;18351;47.560;9.708;2022-12-05T00:53:58;4.10;99.90
31783;DHT22;18351;47.560;9.708;2022-12-05T00:56:25;4.20;99.90
31783;DHT22;18351;47.560;9.708;2022-12-05T00:58:52;4.20;99.90
31783;DHT22;18351;47.560;9.708;2022-12-05T01:01:21;4.20;99.90
31783;DHT22;18351;47.560;9.708;2022-12-05T01:03:51;4.10;99.90
31783;DHT22;18351;47.560;9.708;2022-12-05T01:06:17;4.20;99.90
31783;DHT22;18351;47.560;9.708;2022-12-05T01:08:43;4.20;99.90
31783;DHT22;18351;47.560;9.708;2022-12-05T01:11:09;4.20;99.90
31783;DHT22;18351;47.560;9.708;2022-12-05T01:13:35;4.20;99.90
31783;DHT22;18351;47.560;9.708;2022-12-05T01:16:01;4.20;99.90
31783;DHT22;18351;47.560;9.708;2022-12-05T01:18:27;4.20;99.90
31783;DHT22;18351;47.560;9.708;2022-12-05T01:20:53;4.20;99.90
31783;DHT22;18351;47.560;9.708;2022-12-05T01:23:20;4.30;99.90
31783;DHT22;18351;47.560;9.708;2022-12-05T01:25:48;4.20;99.90
31783;DHT22;18351;47.560;9.708;2022-12-05T01:28:15;4.20;99.90
31783;DHT22;18351;47.560;9.708;2022-12-05T01:30:43;4.20;99.90
31783;DHT22;18351;47.560;9.708;2022-12-05T01:33:10;4.10;99.90
31783;DHT22;18351;47.560;9.708;2022-12-05T01:35:38;4.10;99.90
31783;DHT22;18351;47.560;9.708;2022-12-05T01:38:04;4.10;99.90
31783;DHT22;18351;47.560;9.708;2022-12-05T01:40:31;4.10;99.90
31783;DHT22;18351;47.560;9.708;2022-12-05T01:42:57;4.10;99.90
31783;DHT22;18351;47.560;9.708;2022-12-05T01:45:38;4.10;99.90
31783;DHT22;18351;47.560;9.708;2022-12-05T01:48:12;4.20;99.90
31783;DHT22;18351;47.560;9.708;2022-12-05T01:50:38;4.20;99.90
31783;DHT22;18351;47.560;9.708;2022-12-05T01:53:04;4.20;99.90
31783;DHT22;18351;47.560;9.708;2022-12-05T01:55:30;4.20;99.90
31783;DHT22;18351;47.560;9.708;2022-12-05T01:57:58;4.30;99.90
31783;DHT22;18351;47.560;9.708;2022-12-05T02:00:24;4.30;99.90
31783;DHT22;18351;47.560;9.708;2022-12-05T02:02:56;4.10;99.90
31783;DHT22;18351;47.560;9.708;2022-12-05T02:05:29;4.10;99.90
31783;DHT22;18351;47.560;9.708;2022-12-05T02:07:57;4.10;99.90
31783;DHT22;18351;47.560;9.708;2022-12-05T02:10:24;4.10;99.90
31783;DHT22;18351;47.560;9.708;2022-12-05T02:12:50;4.10;99.90
31783;DHT22;18351;47.560;9.708;2022-12-05T02:20:48;4.00;99.90
31783;DHT22;18351;47.560;9.708;2022-12-05T02:23:31;4.00;99.90
31783;DHT22;18351;47.560;9.708;2022-12-05T02:26:18;4.10;99.90
31783;DHT22;18351;47.560;9.708;2022-12-05T02:29:20;4.10;99.90
31783;DHT22;18351;47.560;9.708;2022-12-05T02:31:58;4.10;99.90
31783;DHT22;18351;47.560;9.708;2022-12-05T02:37:27;4.10;99.90
31783;DHT22;18351;47.560;9.708;2022-12-05T02:45:13;4.20;99.90
31783;DHT22;18351;47.560;9.708;2022-12-05T02:47:45;4.30;99.90
31783;DHT22;18351;47.560;9.708;2022-12-05T02:50:14;4.30;99.90
31783;DHT22;18351;47.560;9.708;2022-12-05T02:52:42;4.20;99.90
31783;DHT22;18351;47.560;9.708;2022-12-05T02:55:10;4.20;99.90
31783;DHT22;18351;47.560;9.708;2022-12-05T02:57:37;4.10;99.90
31783;DHT22;18351;47.560;9.708;2022-12-05T03:00:04;4.00;99.90
31783;DHT22;18351;47.560;9.708;2022-12-05T03:02:32;3.90;99.90
31783;DHT22;18351;47.560;9.708;2022-12-05T03:07:39;3.80;99.90
31783;DHT22;18351;47.560;9.708;2022-12-05T03:10:07;3.80;99.90
31783;DHT22;18351;47.560;9.708;2022-12-05T03:12:38;3.90;99.90
31783;DHT22;18351;47.560;9.708;2022-12-05T03:15:12;4.00;99.90
31783;DHT22;18351;47.560;9.708;2022-12-05T03:18:03;4.00;99.90
31783;DHT22;18351;47.560;9.708;2022-12-05T03:20:40;3.80;99.90
31783;DHT22;18351;47.560;9.708;2022-12-05T03:29:02;3.70;99.90
31783;DHT22;18351;47.560;9.708;2022-12-05T03:32:23;3.80;99.90
31783;DHT22;18351;47.560;9.708;2022-12-05T03:37:45;3.80;99.90
31783;DHT22;18351;47.560;9.708;2022-12-05T03:43:05;4.00;99.90
31783;DHT22;18351;47.560;9.708;2022-12-05T03:45:48;3.90;99.90
31783;DHT22;18351;47.560;9.708;2022-12-05T03:51:02;3.80;99.90
31783;DHT22;18351;47.560;9.708;2022-12-05T03:53:34;3.80;99.90
31783;DHT22;18351;47.560;9.708;2022-12-05T03:56:08;3.80;99.90
31783;DHT22;18351;47.560;9.708;2022-12-05T03:58:42;3.80;99.90
31783;DHT22;18351;47.560;9.708;2022-12-05T04:01:09;3.80;99.90
31783;DHT22;18351;47.560;9.708;2022-12-05T04:03:46;3.90;99.90
31783;DHT22;18351;47.560;9.708;2022-12-05T04:08:51;4.00;99.90
31783;DHT22;18351;47.560;9.708;2022-12-05T04:11:22;4.00;99.90
31783;DHT22;18351;47.560;9.708;2022-12-05T04:16:52;4.10;99.90
31783;DHT22;18351;47.560;9.708;2022-12-05T04:22:24;4.10;99.90
31783;DHT22;18351;47.560;9.708;2022-12-05T04:24:50;4.00;99.90
31783;DHT22;18351;47.560;9.708;2022-12-05T04:30:42;4.00;99.90
31783;DHT22;18351;47.560;9.708;2022-12-05T04:33:18;4.00;99.90
31783;DHT22;18351;47.560;9.708;2022-12-05T04:35:52;4.00;99.90
31783;DHT22;18351;47.560;9.708;2022-12-05T04:38:35;4.10;99.90
31783;DHT22;18351;47.560;9.708;2022-12-05T04:41:05;4.00;99.90
31783;DHT22;18351;47.560;9.708;2022-12-05T04:43:35;4.10;99.90
31783;DHT22;18351;47.560;9.708;2022-12-05T04:46:04;4.10;99.90
31783;DHT22;18351;47.560;9.708;2022-12-05T04:48:31;4.20;99.90
31783;DHT22;18351;47.560;9.708;2022-12-05T04:50:59;4.20;99.90
31783;DHT22;18351;47.560;9.708;2022-12-05T04:53:28;4.20;99.90
31783;DHT22;18351;47.560;9.708;2022-12-05T04:55:57;4.30;99.90
31783;DHT22;18351;47.560;9.708;2022-12-05T04:58:25;4.30;99.90
31783;DHT22;18351;47.560;9.708;2022-12-05T05:06:04;4.40;99.90
31783;DHT22;18351;47.560;9.708;2022-12-05T05:08:31;4.40;99.90
31783;DHT22;18351;47.560;9.708;2022-12-05T05:13:32;4.50;99.90
31783;DHT22;18351;47.560;9.708;2022-12-05T05:15:58;4.50;99.90
31783;DHT22;18351;47.560;9.708;2022-12-05T05:18:23;4.50;99.90
31783;DHT22;18351;47.560;9.708;2022-12-05T05:20:49;4.50;99.90
31783;DHT22;18351;47.560;9.708;2022-12-05T05:23:14;4.50;99.90
31783;DHT22;18351;47.560;9.708;2022-12-05T05:25:40;4.50;99.90
31783;DHT22;18351;47.560;9.708;2022-12-05T05:28:05;4.50;99.90
31783;DHT22;18351;47.560;9.708;2022-12-05T05:30:31;4.50;99.90
31783;DHT22;18351;47.560;9.708;2022-12-05T05:32:58;4.50;99.90
31783;DHT22;18351;47.560;9.708;2022-12-05T05:35:24;4.50;99.90
31783;DHT22;18351;47.560;9.708;2022-12-05T05:37:50;4.60;99.90
31783;DHT22;18351;47.560;9.708;2022-12-05T05:40:15;4.50;99.90
31783;DHT22;18351;47.560;9.708;2022-12-05T05:42:45;4.50;99.90
31783;DHT22;18351;47.560;9.708;2022-12-05T05:45:12;4.50;99.90
31783;DHT22;18351;47.560;9.708;2022-12-05T05:47:38;4.50;99.90
31783;DHT22;18351;47.560;9.708;2022-12-05T05:50:05;4.60;99.90
31783;DHT22;18351;47.560;9.708;2022-12-05T05:52:35;4.60;99.90
31783;DHT22;18351;47.560;9.708;2022-12-05T05:55:02;4.60;99.90
31783;DHT22;18351;47.560;9.708;2022-12-05T05:57:30;4.60;99.90
31783;DHT22;18351;47.560;9.708;2022-12-05T05:59:55;4.50;99.90
31783;DHT22;18351;47.560;9.708;2022-12-05T06:02:21;4.60;99.90
31783;DHT22;18351;47.560;9.708;2022-12-05T06:04:47;4.50;99.90
31783;DHT22;18351;47.560;9.708;2022-12-05T06:07:12;4.50;99.90
31783;DHT22;18351;47.560;9.708;2022-12-05T06:09:38;4.50;99.90
31783;DHT22;18351;47.560;9.708;2022-12-05T06:12:04;4.50;99.90
31783;DHT22;18351;47.560;9.708;2022-12-05T06:14:30;4.50;99.90
31783;DHT22;18351;47.560;9.708;2022-12-05T06:16:55;4.50;99.90
31783;DHT22;18351;47.560;9.708;2022-12-05T06:19:21;4.50;99.90
31783;DHT22;18351;47.560;9.708;2022-12-05T06:21:48;4.50;99.90
31783;DHT22;18351;47.560;9.708;2022-12-05T06:24:15;4.50;99.90
31783;DHT22;18351;47.560;9.708;2022-12-05T06:26:40;4.50;99.90
31783;DHT22;18351;47.560;9.708;2022-12-05T06:29:06;4.50;99.90
31783;DHT22;18351;47.560;9.708;2022-12-05T06:31:31;4.60;99.90
31783;DHT22;18351;47.560;9.708;2022-12-05T06:34:02;4.60;99.90
31783;DHT22;18351;47.560;9.708;2022-12-05T06:36:27;4.60;99.90
31783;DHT22;18351;47.560;9.708;2022-12-05T06:38:58;4.60;99.90
31783;DHT22;18351;47.560;9.708;2022-12-05T06:41:25;4.60;99.90
31783;DHT22;18351;47.560;9.708;2022-12-05T06:43:53;4.60;99.90
31783;DHT22;18351;47.560;9.708;2022-12-05T06:46:19;4.60;99.90
31783;DHT22;18351;47.560;9.708;2022-12-05T06:48:45;4.50;99.90
31783;DHT22;18351;47.560;9.708;2022-12-05T06:51:12;4.50;99.90
31783;DHT22;18351;47.560;9.708;2022-12-05T06:53:39;4.40;99.90
31783;DHT22;18351;47.560;9.708;2022-12-05T06:56:06;4.50;99.90
31783;DHT22;18351;47.560;9.708;2022-12-05T06:58:35;4.50;99.90
31783;DHT22;18351;47.560;9.708;2022-12-05T07:01:01;4.60;99.90
31783;DHT22;18351;47.560;9.708;2022-12-05T07:03:47;4.60;99.90
31783;DHT22;18351;47.560;9.708;2022-12-05T07:06:13;4.60;99.90
31783;DHT22;18351;47.560;9.708;2022-12-05T07:08:39;4.60;99.90
31783;DHT22;18351;47.560;9.708;2022-12-05T07:11:06;4.70;99.90
31783;DHT22;18351;47.560;9.708;2022-12-05T07:13:32;4.70;99.90
31783;DHT22;18351;47.560;9.708;2022-12-05T07:15:58;4.70;99.90
31783;DHT22;18351;47.560;9.708;2022-12-05T07:18:24;4.80;99.90
31783;DHT22;18351;47.560;9.708;2022-12-05T07:21:00;4.80;99.90
31783;DHT22;18351;47.560;9.708;2022-12-05T07:23:27;4.80;99.90
31783;DHT22;18351;47.560;9.708;2022-12-05T07:25:53;4.80;99.90
31783;DHT22;18351;47.560;9.708;2022-12-05T07:28:19;4.90;99.90
31783;DHT22;18351;47.560;9.708;2022-12-05T07:30:44;4.90;99.90
31783;DHT22;18351;47.560;9.708;2022-12-05T07:33:10;5.00;99.90
31783;DHT22;18351;47.560;9.708;2022-12-05T07:35:35;5.00;99.90
31783;DHT22;18351;47.560;9.708;2022-12-05T07:38:01;5.00;99.90
31783;DHT22;18351;47.560;9.708;2022-12-05T07:40:27;5.10;99.90
31783;DHT22;18351;47.560;9.708;2022-12-05T07:42:53;5.10;99.90
31783;DHT22;18351;47.560;9.708;2022-12-05T07:45:19;5.10;99.90
31783;DHT22;18351;47.560;9.708;2022-12-05T07:47:45;5.20;99.90
31783;DHT22;18351;47.560;9.708;2022-12-05T07:50:11;5.20;99.90
31783;DHT22;18351;47.560;9.708;2022-12-05T07:52:38;5.30;99.90
31783;DHT22;18351;47.560;9.708;2022-12-05T07:55:04;5.30;99.90
31783;DHT22;18351;47.560;9.708;2022-12-05T07:57:30;5.30;99.90
31783;DHT22;18351;47.560;9.708;2022-12-05T07:59:55;5.40;99.90
31783;DHT22;18351;47.560;9.708;2022-12-05T08:02:21;5.40;99.90
31783;DHT22;18351;47.560;9.708;2022-12-05T08:04:47;5.40;99.90
31783;DHT22;18351;47.560;9.708;2022-12-05T08:07:12;5.40;99.90
31783;DHT22;18351;47.560;9.708;2022-12-05T08:09:38;5.40;99.90
31783;DHT22;18351;47.560;9.708;2022-12-05T08:12:03;5.40;99.90
31783;DHT22;18351;47.560;9.708;2022-12-05T08:14:29;5.40;99.90
31783;DHT22;18351;47.560;9.708;2022-12-05T08:16:54;5.40;99.90
31783;DHT22;18351;47.560;9.708;2022-12-05T08:19:20;5.40;99.90
31783;DHT22;18351;47.560;9.708;2022-12-05T08:21:46;5.30;99.90
31783;DHT22;18351;47.560;9.708;2022-12-05T08:24:11;5.40;99.90
31783;DHT22;18351;47.560;9.708;2022-12-05T08:26:38;5.30;99.90
31783;DHT22;18351;47.560;9.708;2022-12-05T08:29:09;5.30;99.90
31783;DHT22;18351;47.560;9.708;2022-12-05T08:31:42;5.30;99.90
31783;DHT22;18351;47.560;9.708;2022-12-05T08:34:10;5.40;99.90
31783;DHT22;18351;47.560;9.708;2022-12-05T08:36:36;5.40;99.90
31783;DHT22;18351;47.560;9.708;2022-12-05T08:39:04;5.40;99.90
31783;DHT22;18351;47.560;9.708;2022-12-05T08:41:31;5.40;99.90
31783;DHT22;18351;47.560;9.708;2022-12-05T08:43:59;5.30;99.90
31783;DHT22;18351;47.560;9.708;2022-12-05T08:46:25;5.30;99.90
31783;DHT22;18351;47.560;9.708;2022-12-05T08:48:51;5.30;99.90
31783;DHT22;18351;47.560;9.708;2022-12-05T08:51:17;5.30;99.90
31783;DHT22;18351;47.560;9.708;2022-12-05T08:53:42;5.30;99.90
31783;DHT22;18351;47.560;9.708;2022-12-05T08:56:08;5.30;99.90
31783;DHT22;18351;47.560;9.708;2022-12-05T08:58:35;5.40;99.90
31783;DHT22;18351;47.560;9.708;2022-12-05T09:01:09;5.40;99.90
31783;DHT22;18351;47.560;9.708;2022-12-05T09:03:36;5.40;99.90
31783;DHT22;18351;47.560;9.708;2022-12-05T09:06:13;5.30;99.90
31783;DHT22;18351;47.560;9.708;2022-12-05T09:08:40;5.30;99.90
31783;DHT22;18351;47.560;9.708;2022-12-05T09:11:12;5.30;99.90
31783;DHT22;18351;47.560;9.708;2022-12-05T09:13:38;5.40;99.90
31783;DHT22;18351;47.560;9.708;2022-12-05T09:16:15;5.30;99.90
31783;DHT22;18351;47.560;9.708;2022-12-05T09:18:42;5.20;99.90
31783;DHT22;18351;47.560;9.708;2022-12-05T09:21:10;5.20;99.90
31783;DHT22;18351;47.560;9.708;2022-12-05T09:23:35;5.10;99.90
31783;DHT22;18351;47.560;9.708;2022-12-05T09:26:01;4.90;99.90
31783;DHT22;18351;47.560;9.708;2022-12-05T09:28:28;4.90;99.90
31783;DHT22;18351;47.560;9.708;2022-12-05T09:30:55;5.00;99.90
31783;DHT22;18351;47.560;9.708;2022-12-05T09:33:21;4.90;99.90
31783;DHT22;18351;47.560;9.708;2022-12-05T09:35:47;5.00;99.90
31783;DHT22;18351;47.560;9.708;2022-12-05T09:38:12;5.00;99.90
31783;DHT22;18351;47.560;9.708;2022-12-05T09:40:41;5.00;99.90
31783;DHT22;18351;47.560;9.708;2022-12-05T09:43:24;5.00;99.90
31783;DHT22;18351;47.560;9.708;2022-12-05T09:46:06;5.00;99.90
31783;DHT22;18351;47.560;9.708;2022-12-05T09:48:37;5.10;99.90
31783;DHT22;18351;47.560;9.708;2022-12-05T09:51:08;5.10;99.90
31783;DHT22;18351;47.560;9.708;2022-12-05T09:53:37;5.10;99.90
31783;DHT22;18351;47.560;9.708;2022-12-05T09:58:43;5.10;99.90
31783;DHT22;18351;47.560;9.708;2022-12-05T10:01:35;5.20;99.90
31783;DHT22;18351;47.560;9.708;2022-12-05T10:09:44;5.30;99.90
31783;DHT22;18351;47.560;9.708;2022-12-05T10:12:33;5.30;99.90
31783;DHT22;18351;47.560;9.708;2022-12-05T10:15:23;5.30;99.90
31783;DHT22;18351;47.560;9.708;2022-12-05T10:20:27;5.40;99.90
31783;DHT22;18351;47.560;9.708;2022-12-05T10:22:59;5.40;99.90
31783;DHT22;18351;47.560;9.708;2022-12-05T10:25:27;5.50;99.90
31783;DHT22;18351;47.560;9.708;2022-12-05T10:28:08;5.50;99.90
31783;DHT22;18351;47.560;9.708;2022-12-05T10:30:36;5.40;99.90
31783;DHT22;18351;47.560;9.708;2022-12-05T10:33:13;5.50;99.90
31783;DHT22;18351;47.560;9.708;2022-12-05T10:35:40;5.50;99.90
31783;DHT22;18351;47.560;9.708;2022-12-05T10:40:48;5.40;99.90
31783;DHT22;18351;47.560;9.708;2022-12-05T10:43:27;5.30;99.90
31783;DHT22;18351;47.560;9.708;2022-12-05T10:45:53;5.30;99.90
31783;DHT22;18351;47.560;9.708;2022-12-05T10:48:20;5.30;99.90
31783;DHT22;18351;47.560;9.708;2022-12-05T10:50:48;5.20;99.90
31783;DHT22;18351;47.560;9.708;2022-12-05T10:53:18;5.20;99.90
31783;DHT22;18351;47.560;9.708;2022-12-05T10:55:46;5.10;99.90
31783;DHT22;18351;47.560;9.708;2022-12-05T10:58:45;5.00;99.90
31783;DHT22;18351;47.560;9.708;2022-12-05T11:01:09;4.90;99.90
31783;DHT22;18351;47.560;9.708;2022-12-05T11:03:42;5.00;99.90
31783;DHT22;18351;47.560;9.708;2022-12-05T11:06:26;5.00;99.90
31783;DHT22;18351;47.560;9.708;2022-12-05T11:09:16;5.10;99.90
31783;DHT22;18351;47.560;9.708;2022-12-05T11:11:39;5.10;99.90
31783;DHT22;18351;47.560;9.708;2022-12-05T11:14:20;5.20;99.90
31783;DHT22;18351;47.560;9.708;2022-12-05T11:16:53;5.30;99.90
31783;DHT22;18351;47.560;9.708;2022-12-05T11:19:30;5.40;99.90
31783;DHT22;18351;47.560;9.708;2022-12-05T11:21:56;5.40;99.90
31783;DHT22;18351;47.560;9.708;2022-12-05T11:26:52;5.60;99.90
31783;DHT22;18351;47.560;9.708;2022-12-05T11:29:37;5.70;99.90
31783;DHT22;18351;47.560;9.708;2022-12-05T11:32:05;5.80;99.90
31783;DHT22;18351;47.560;9.708;2022-12-05T11:34:48;5.70;99.90
31783;DHT22;18351;47.560;9.708;2022-12-05T11:37:21;5.70;99.90
31783;DHT22;18351;47.560;9.708;2022-12-05T11:39:48;5.80;99.90
31783;DHT22;18351;47.560;9.708;2022-12-05T11:55:50;6.20;99.90
31783;DHT22;18351;47.560;9.708;2022-12-05T12:09:06;6.30;99.90
31783;DHT22;18351;47.560;9.708;2022-12-05T12:12:01;6.30;99.90
31783;DHT22;18351;47.560;9.708;2022-12-05T12:14:35;6.20;99.90
31783;DHT22;18351;47.560;9.708;2022-12-05T12:19:51;6.10;99.90
31783;DHT22;18351;47.560;9.708;2022-12-05T12:25:36;6.00;99.90
31783;DHT22;18351;47.560;9.708;2022-12-05T12:33:35;5.90;99.90
31783;DHT22;18351;47.560;9.708;2022-12-05T12:36:16;5.90;99.90
31783;DHT22;18351;47.560;9.708;2022-12-05T12:44:44;5.80;99.90
31783;DHT22;18351;47.560;9.708;2022-12-05T12:47:31;5.70;99.90
31783;DHT22;18351;47.560;9.708;2022-12-05T12:58:22;5.80;99.90
31783;DHT22;18351;47.560;9.708;2022-12-05T13:01:02;5.80;99.90
31783;DHT22;18351;47.560;9.708;2022-12-05T13:03:43;5.80;99.90
31783;DHT22;18351;47.560;9.708;2022-12-05T13:06:22;5.80;99.90
31783;DHT22;18351;47.560;9.708;2022-12-05T13:08:53;5.80;99.90
31783;DHT22;18351;47.560;9.708;2022-12-05T13:11:21;5.90;99.90
31783;DHT22;18351;47.560;9.708;2022-12-05T13:13:51;5.90;99.90
31783;DHT22;18351;47.560;9.708;2022-12-05T13:16:39;6.00;99.90
31783;DHT22;18351;47.560;9.708;2022-12-05T13:22:05;6.00;99.90
31783;DHT22;18351;47.560;9.708;2022-12-05T13:24:32;6.10;99.90
31783;DHT22;18351;47.560;9.708;2022-12-05T13:27:05;6.10;99.90
31783;DHT22;18351;47.560;9.708;2022-12-05T13:32:00;6.10;99.90
31783;DHT22;18351;47.560;9.708;2022-12-05T13:34:35;6.10;99.90
31783;DHT22;18351;47.560;9.708;2022-12-05T13:37:14;6.10;99.90
31783;DHT22;18351;47.560;9.708;2022-12-05T13:40:00;6.20;99.90
31783;DHT22;18351;47.560;9.708;2022-12-05T13:42:45;6.10;99.90
31783;DHT22;18351;47.560;9.708;2022-12-05T13:45:17;6.10;99.90
31783;DHT22;18351;47.560;9.708;2022-12-05T13:48:01;6.10;99.90
31783;DHT22;18351;47.560;9.708;2022-12-05T13:53:48;6.10;99.90
31783;DHT22;18351;47.560;9.708;2022-12-05T14:09:27;6.00;99.90
31783;DHT22;18351;47.560;9.708;2022-12-05T14:15:22;6.00;99.90
31783;DHT22;18351;47.560;9.708;2022-12-05T14:17:48;5.90;99.90
31783;DHT22;18351;47.560;9.708;2022-12-05T14:25:57;5.70;99.90
31783;DHT22;18351;47.560;9.708;2022-12-05T14:31:27;5.70;99.90
31783;DHT22;18351;47.560;9.708;2022-12-05T14:37:06;5.60;99.90
31783;DHT22;18351;47.560;9.708;2022-12-05T14:39:45;5.60;99.90
31783;DHT22;18351;47.560;9.708;2022-12-05T14:42:41;5.60;99.90
31783;DHT22;18351;47.560;9.708;2022-12-05T14:45:23;5.60;99.90
31783;DHT22;18351;47.560;9.708;2022-12-05T14:48:02;5.60;99.90
31783;DHT22;18351;47.560;9.708;2022-12-05T15:01:07;5.40;99.90
31783;DHT22;18351;47.560;9.708;2022-12-05T15:03:49;5.30;99.90
31783;DHT22;18351;47.560;9.708;2022-12-05T15:06:21;5.30;99.90
31783;DHT22;18351;47.560;9.708;2022-12-05T15:08:53;5.30;99.90
31783;DHT22;18351;47.560;9.708;2022-12-05T15:11:22;5.20;99.90
31783;DHT22;18351;47.560;9.708;2022-12-05T15:14:09;5.20;99.90
31783;DHT22;18351;47.560;9.708;2022-12-05T15:16:42;5.20;99.90
31783;DHT22;18351;47.560;9.708;2022-12-05T15:19:16;5.20;99.90
31783;DHT22;18351;47.560;9.708;2022-12-05T15:21:45;5.10;99.90
31783;DHT22;18351;47.560;9.708;2022-12-05T15:24:13;5.10;99.90
31783;DHT22;18351;47.560;9.708;2022-12-05T15:26:49;5.00;99.90
31783;DHT22;18351;47.560;9.708;2022-12-05T15:31:59;5.00;99.90
31783;DHT22;18351;47.560;9.708;2022-12-05T15:45:20;4.70;99.90
31783;DHT22;18351;47.560;9.708;2022-12-05T15:48:11;4.70;99.90
31783;DHT22;18351;47.560;9.708;2022-12-05T15:50:43;4.60;99.90
31783;DHT22;18351;47.560;9.708;2022-12-05T15:53:33;4.60;99.90
31783;DHT22;18351;47.560;9.708;2022-12-05T15:58:52;4.50;99.90
31783;DHT22;18351;47.560;9.708;2022-12-05T16:01:22;4.50;99.90
31783;DHT22;18351;47.560;9.708;2022-12-05T16:03:59;4.50;99.90
31783;DHT22;18351;47.560;9.708;2022-12-05T16:09:05;4.40;99.90
31783;DHT22;18351;47.560;9.708;2022-12-05T16:11:31;4.40;99.90
31783;DHT22;18351;47.560;9.708;2022-12-05T16:14:00;4.30;99.90
31783;DHT22;18351;47.560;9.708;2022-12-05T16:16:44;4.40;99.90
31783;DHT22;18351;47.560;9.708;2022-12-05T16:19:15;4.40;99.90
31783;DHT22;18351;47.560;9.708;2022-12-05T16:21:46;4.40;99.90
31783;DHT22;18351;47.560;9.708;2022-12-05T16:24:29;4.40;99.90
31783;DHT22;18351;47.560;9.708;2022-12-05T16:27:12;4.30;99.90
31783;DHT22;18351;47.560;9.708;2022-12-05T16:29:37;4.20;99.90
31783;DHT22;18351;47.560;9.708;2022-12-05T16:32:13;4.20;99.90
31783;DHT22;18351;47.560;9.708;2022-12-05T16:34:39;4.20;99.90
31783;DHT22;18351;47.560;9.708;2022-12-05T16:37:05;4.20;99.90
31783;DHT22;18351;47.560;9.708;2022-12-05T16:39:32;4.20;99.90
31783;DHT22;18351;47.560;9.708;2022-12-05T16:41:58;4.20;99.90
31783;DHT22;18351;47.560;9.708;2022-12-05T16:46:53;4.20;99.90
31783;DHT22;18351;47.560;9.708;2022-12-05T16:54:27;4.10;99.90
31783;DHT22;18351;47.560;9.708;2022-12-05T16:56:53;4.10;99.90
31783;DHT22;18351;47.560;9.708;2022-12-05T17:01:52;4.10;99.90
31783;DHT22;18351;47.560;9.708;2022-12-05T17:04:18;4.10;99.90
31783;DHT22;18351;47.560;9.708;2022-12-05T17:06:44;4.10;99.90
31783;DHT22;18351;47.560;9.708;2022-12-05T17:09:10;4.20;99.90
31783;DHT22;18351;47.560;9.708;2022-12-05T17:11:37;4.10;99.90
31783;DHT22;18351;47.560;9.708;2022-12-05T17:14:05;4.20;99.90
31783;DHT22;18351;47.560;9.708;2022-12-05T17:16:31;4.20;99.90
31783;DHT22;18351;47.560;9.708;2022-12-05T17:18:57;4.10;99.90
31783;DHT22;18351;47.560;9.708;2022-12-05T17:21:29;4.20;99.90
31783;DHT22;18351;47.560;9.708;2022-12-05T17:23:55;4.20;99.90
31783;DHT22;18351;47.560;9.708;2022-12-05T17:26:21;4.20;99.90
31783;DHT22;18351;47.560;9.708;2022-12-05T17:28:47;4.20;99.90
31783;DHT22;18351;47.560;9.708;2022-12-05T17:31:15;4.20;99.90
31783;DHT22;18351;47.560;9.708;2022-12-05T17:33:42;4.20;99.90
31783;DHT22;18351;47.560;9.708;2022-12-05T17:36:08;4.30;99.90
31783;DHT22;18351;47.560;9.708;2022-12-05T17:38:33;4.30;99.90
31783;DHT22;18351;47.560;9.708;2022-12-05T17:40:59;4.30;99.90
31783;DHT22;18351;47.560;9.708;2022-12-05T17:43:25;4.30;99.90
31783;DHT22;18351;47.560;9.708;2022-12-05T17:45:50;4.30;99.90
31783;DHT22;18351;47.560;9.708;2022-12-05T17:48:16;4.30;99.90
31783;DHT22;18351;47.560;9.708;2022-12-05T17:50:44;4.30;99.90
31783;DHT22;18351;47.560;9.708;2022-12-05T17:53:19;4.30;99.90
31783;DHT22;18351;47.560;9.708;2022-12-05T17:55:45;4.20;99.90
31783;DHT22;18351;47.560;9.708;2022-12-05T17:58:13;4.20;99.90
31783;DHT22;18351;47.560;9.708;2022-12-05T18:00:40;4.10;99.90
31783;DHT22;18351;47.560;9.708;2022-12-05T18:03:05;4.20;99.90
31783;DHT22;18351;47.560;9.708;2022-12-05T18:05:31;4.20;99.90
31783;DHT22;18351;47.560;9.708;2022-12-05T18:07:57;4.10;99.90
31783;DHT22;18351;47.560;9.708;2022-12-05T18:10:22;4.10;99.90
31783;DHT22;18351;47.560;9.708;2022-12-05T18:12:49;4.00;99.90
31783;DHT22;18351;47.560;9.708;2022-12-05T18:15:15;4.00;99.90
31783;DHT22;18351;47.560;9.708;2022-12-05T18:17:41;4.00;99.90
31783;DHT22;18351;47.560;9.708;2022-12-05T18:20:10;4.00;99.90
31783;DHT22;18351;47.560;9.708;2022-12-05T18:22:36;3.90;99.90
31783;DHT22;18351;47.560;9.708;2022-12-05T18:25:01;3.90;99.90
31783;DHT22;18351;47.560;9.708;2022-12-05T18:27:28;3.80;99.90
31783;DHT22;18351;47.560;9.708;2022-12-05T18:29:54;3.80;99.90
31783;DHT22;18351;47.560;9.708;2022-12-05T18:32:20;3.70;99.90
31783;DHT22;18351;47.560;9.708;2022-12-05T18:34:46;3.60;99.90
31783;DHT22;18351;47.560;9.708;2022-12-05T18:37:11;3.60;99.90
31783;DHT22;18351;47.560;9.708;2022-12-05T18:39:38;3.60;99.90
31783;DHT22;18351;47.560;9.708;2022-12-05T18:42:04;3.60;99.90
31783;DHT22;18351;47.560;9.708;2022-12-05T18:44:30;3.60;99.90
31783;DHT22;18351;47.560;9.708;2022-12-05T18:46:56;3.60;99.90
31783;DHT22;18351;47.560;9.708;2022-12-05T18:49:21;3.60;99.90
31783;DHT22;18351;47.560;9.708;2022-12-05T18:51:47;3.60;99.90
31783;DHT22;18351;47.560;9.708;2022-12-05T18:54:13;3.70;99.90
31783;DHT22;18351;47.560;9.708;2022-12-05T18:56:39;3.80;99.90
31783;DHT22;18351;47.560;9.708;2022-12-05T18:59:07;3.80;99.90
31783;DHT22;18351;47.560;9.708;2022-12-05T19:01:35;3.80;99.90
31783;DHT22;18351;47.560;9.708;2022-12-05T19:04:04;3.90;99.90
31783;DHT22;18351;47.560;9.708;2022-12-05T19:06:31;3.90;99.90
31783;DHT22;18351;47.560;9.708;2022-12-05T19:09:00;3.90;99.90
31783;DHT22;18351;47.560;9.708;2022-12-05T19:11:27;3.90;99.90
31783;DHT22;18351;47.560;9.708;2022-12-05T19:13:58;4.00;99.90